Time;durP1;ratioP1;P1;durP2;ratioP2;P2;SDS_P1;SDS_P2;PMS_P1;PMS_P2;Temp;Humidity;BMP_temperature;BMP_pressure;BME280_temperature;BME280_humidity;BME280_pressure;Samples;Min_cycle;Max_cycle;Signal;HPM_P1;HPM_P2
2021/12/02 00:02:01;;;;;;;6.43;1.55;;;12.90;99.90;;;;;;5093097;28;20036;-75
2021/12/02 00:04:30;;;;;;;5.32;1.50;;;13.00;99.90;;;;;;5092738;28;20025;-76
2021/12/02 00:06:56;;;;;;;5.50;1.58;;;13.00;99.90;;;;;;5092700;28;20388;-76
2021/12/02 00:09:22;;;;;;;7.97;1.80;;;13.00;99.90;;;;;;5093137;28;20031;-75
2021/12/02 00:11:48;;;;;;;6.03;1.70;;;12.90;99.90;;;;;;5092897;28;20102;-76
2021/12/02 00:14:24;;;;;;;9.90;1.93;;;12.90;99.90;;;;;;5091236;28;20391;-76
2021/12/02 00:22:13;;;;;;;5.85;1.50;;;13.00;99.90;;;;;;5092706;28;20039;-76
2021/12/02 00:24:47;;;;;;;5.82;1.65;;;13.00;99.90;;;;;;5074023;28;20039;-76
2021/12/02 00:27:14;;;;;;;6.43;1.40;;;13.00;99.90;;;;;;5091184;28;20028;-76
2021/12/02 00:29:41;;;;;;;;;;;13.00;99.90;;;;;;5092948;28;20032;-78
2021/12/02 00:32:08;;;;;;;;;;;12.90;99.90;;;;;;5092748;28;19911;-76
2021/12/02 00:34:44;;;;;;;6.68;1.48;;;12.90;99.90;;;;;;5091829;28;19916;-78
2021/12/02 00:37:10;;;;;;;7.40;1.75;;;12.90;99.90;;;;;;5092712;28;20051;-78
2021/12/02 00:39:39;;;;;;;5.10;1.40;;;12.90;99.90;;;;;;5074291;28;20028;-76
2021/12/02 00:42:08;;;;;;;6.03;1.40;;;12.90;99.90;;;;;;5092162;28;20024;-76
2021/12/02 00:44:36;;;;;;;5.88;1.42;;;12.90;99.90;;;;;;5090852;28;20065;-76
2021/12/02 00:47:02;;;;;;;5.55;1.58;;;12.90;99.90;;;;;;5090739;28;20356;-75
2021/12/02 00:49:30;;;;;;;5.18;1.67;;;12.90;99.90;;;;;;5092362;28;20032;-76
2021/12/02 00:52:00;;;;;;;8.52;1.27;;;13.00;99.90;;;;;;5091903;28;20460;-76
2021/12/02 00:54:28;;;;;;;8.90;1.75;;;13.00;99.90;;;;;;5091821;28;20024;-76
2021/12/02 00:56:55;;;;;;;7.10;1.73;;;13.00;99.90;;;;;;5092013;28;20130;-75
2021/12/02 00:59:22;;;;;;;7.35;1.95;;;13.00;99.90;;;;;;5091742;28;20084;-76
2021/12/02 01:01:50;;;;;;;8.05;2.08;;;13.00;99.90;;;;;;5091614;28;20024;-77
2021/12/02 01:04:23;;;;;;;7.28;1.98;;;12.90;99.90;;;;;;5091560;28;20052;-76
2021/12/02 01:06:50;;;;;;;8.32;1.63;;;12.90;99.90;;;;;;5091920;28;20469;-77
2021/12/02 01:09:16;;;;;;;3.67;1.60;;;12.90;99.90;;;;;;5090182;28;20024;-76
2021/12/02 01:11:43;;;;;;;3.53;1.70;;;12.90;99.90;;;;;;5091809;28;20054;-76
2021/12/02 01:14:11;;;;;;;10.02;1.98;;;12.90;99.90;;;;;;5091841;28;20372;-77
2021/12/02 01:16:38;;;;;;;3.28;1.40;;;13.00;99.90;;;;;;5091080;28;20448;-76
2021/12/02 01:19:06;;;;;;;7.10;1.83;;;13.00;99.90;;;;;;5091566;28;20399;-76
2021/12/02 01:21:36;;;;;;;6.25;1.80;;;13.00;99.90;;;;;;5091255;28;20075;-76
2021/12/02 01:24:06;;;;;;;6.65;1.67;;;13.00;99.90;;;;;;5091517;28;20396;-76
2021/12/02 01:26:34;;;;;;;6.65;1.60;;;13.10;99.90;;;;;;5091691;28;20324;-76
2021/12/02 01:29:04;;;;;;;8.98;1.50;;;13.20;99.90;;;;;;5091421;28;20111;-76
2021/12/02 01:31:33;;;;;;;9.82;1.98;;;13.20;99.90;;;;;;5091333;28;20032;-76
2021/12/02 01:34:02;;;;;;;9.07;2.22;;;13.20;99.90;;;;;;5089345;28;20392;-77
2021/12/02 01:36:37;;;;;;;7.28;1.50;;;13.20;99.90;;;;;;5091118;28;20032;-76
2021/12/02 01:39:05;;;;;;;6.60;1.73;;;13.20;99.90;;;;;;5091675;28;20016;-75
2021/12/02 01:41:55;;;;;;;5.55;1.60;;;13.20;99.90;;;;;;5090099;28;20028;-75
2021/12/02 01:44:24;;;;;;;5.15;1.65;;;13.20;99.90;;;;;;5089589;28;20044;-75
2021/12/02 01:46:59;;;;;;;5.20;1.50;;;13.20;99.90;;;;;;5090928;28;20054;-76
2021/12/02 01:49:31;;;;;;;8.60;1.40;;;13.20;99.90;;;;;;5091218;28;20048;-77
2021/12/02 01:51:59;;;;;;;4.15;1.50;;;13.20;99.90;;;;;;5091205;28;20024;-76
2021/12/02 01:54:27;;;;;;;8.55;1.40;;;13.30;99.90;;;;;;5089693;28;20063;-77
2021/12/02 01:57:05;;;;;;;5.60;1.23;;;13.30;99.90;;;;;;5091431;28;20447;-76
2021/12/02 01:59:34;;;;;;;9.63;1.70;;;13.30;99.90;;;;;;5089788;28;20026;-78
2021/12/02 02:02:03;;;;;;;7.53;1.55;;;13.30;99.90;;;;;;5091016;28;20035;-76
2021/12/02 02:04:31;;;;;;;6.70;1.63;;;13.30;99.90;;;;;;5089644;28;20115;-76
2021/12/02 02:07:04;;;;;;;4.90;1.50;;;13.30;99.90;;;;;;5091547;28;20028;-77
2021/12/02 02:09:34;;;;;;;17.25;2.20;;;13.30;99.90;;;;;;5089693;28;20024;-78
2021/12/02 02:12:03;;;;;;;14.05;1.95;;;13.30;99.90;;;;;;5089607;28;20028;-77
2021/12/02 02:14:31;;;;;;;17.42;2.10;;;13.30;99.90;;;;;;5091002;28;20445;-76
2021/12/02 02:17:03;;;;;;;15.05;1.85;;;13.30;99.90;;;;;;5091034;28;20055;-76
2021/12/02 02:19:31;;;;;;;17.92;2.33;;;13.30;99.90;;;;;;5089547;28;20031;-78
2021/12/02 02:21:59;;;;;;;18.33;2.58;;;13.40;99.90;;;;;;5091210;28;20032;-76
2021/12/02 02:24:26;;;;;;;26.52;2.50;;;13.40;99.90;;;;;;5090082;28;20056;-76
2021/12/02 02:26:53;;;;;;;27.20;2.85;;;13.40;99.90;;;;;;5090962;28;20028;-76
2021/12/02 02:29:20;;;;;;;37.70;3.20;;;13.40;99.90;;;;;;5090531;28;20145;-76
2021/12/02 02:31:48;;;;;;;46.38;3.90;;;13.50;99.90;;;;;;5090936;28;20058;-76
2021/12/02 02:34:14;;;;;;;33.58;3.22;;;13.50;99.90;;;;;;5090468;28;20122;-76
2021/12/02 02:36:51;;;;;;;44.85;4.22;;;13.50;99.90;;;;;;5090978;28;20081;-75
2021/12/02 02:39:18;;;;;;;;;;;13.50;99.90;;;;;;5091024;28;20103;-76
2021/12/02 02:41:46;;;;;;;51.05;4.43;;;13.50;99.90;;;;;;5090415;28;19907;-76
2021/12/02 02:44:14;;;;;;;48.97;5.28;;;13.50;99.90;;;;;;5090837;28;20036;-78
2021/12/02 02:46:41;;;;;;;74.43;5.85;;;13.50;99.90;;;;;;5090726;28;20137;-78
2021/12/02 02:49:13;;;;;;;64.75;6.45;;;13.50;99.90;;;;;;5090809;28;20028;-77
2021/12/02 02:51:41;;;;;;;59.92;5.03;;;13.60;99.90;;;;;;5091104;28;20072;-78
2021/12/02 02:54:16;;;;;;;64.47;5.05;;;13.50;99.90;;;;;;5091026;28;20060;-78
2021/12/02 02:57:00;;;;;;;81.05;6.35;;;13.50;99.90;;;;;;5092931;28;20047;-77
2021/12/02 03:02:14;;;;;;;73.20;6.75;;;13.50;99.90;;;;;;5092905;28;20040;-77
2021/12/02 03:05:09;;;;;;;78.07;6.28;;;13.50;99.90;;;;;;5093056;28;20414;-76
2021/12/02 03:07:52;;;;;;;79.47;6.43;;;13.50;99.90;;;;;;5093783;28;20035;-75
2021/12/02 03:13:09;;;;;;;88.75;6.93;;;13.50;99.90;;;;;;5094464;28;20078;-78
2021/12/02 03:18:26;;;;;;;98.20;7.20;;;13.50;99.90;;;;;;5094711;28;20031;-77
2021/12/02 03:20:56;;;;;;;88.90;7.13;;;13.50;99.90;;;;;;5092219;28;20028;-75
2021/12/02 03:23:24;;;;;;;105.32;8.82;;;13.50;99.90;;;;;;5093881;28;20323;-76
2021/12/02 03:25:52;;;;;;;83.35;6.43;;;13.50;99.90;;;;;;5093723;28;20036;-76
2021/12/02 03:28:18;;;;;;;86.10;6.40;;;13.50;99.90;;;;;;5092051;28;20115;-76
2021/12/02 03:30:45;;;;;;;73.88;6.50;;;13.50;99.90;;;;;;5093867;28;20042;-76
2021/12/02 03:33:11;;;;;;;;;;;13.50;99.90;;;;;;5093489;28;20092;-76
2021/12/02 03:35:37;;;;;;;71.97;7.30;;;13.50;99.90;;;;;;5092940;28;19912;-76
2021/12/02 03:38:03;;;;;;;90.40;8.57;;;13.50;99.90;;;;;;5092901;28;20103;-76
2021/12/02 03:40:29;;;;;;;103.30;7.32;;;13.50;99.90;;;;;;5092451;28;20046;-76
2021/12/02 03:42:55;;;;;;;93.37;6.60;;;13.60;99.90;;;;;;5093028;28;20055;-76
2021/12/02 03:45:25;;;;;;;94.77;8.30;;;13.60;99.90;;;;;;5093383;28;20207;-76
2021/12/02 03:47:53;;;;;;;77.82;7.45;;;13.60;99.90;;;;;;5092620;28;20333;-76
2021/12/02 03:50:20;;;;;;;79.82;7.32;;;13.60;99.90;;;;;;5092976;28;20107;-76
2021/12/02 03:52:47;;;;;;;99.65;7.38;;;13.70;99.90;;;;;;5092864;28;20082;-76
2021/12/02 03:55:12;;;;;;;;;;;13.60;99.90;;;;;;5092613;28;20043;-76
2021/12/02 03:57:38;;;;;;;81.28;7.07;;;13.60;99.90;;;;;;5093766;28;19904;-76
2021/12/02 04:00:05;;;;;;;92.70;7.47;;;13.60;99.90;;;;;;5093387;28;20108;-76
2021/12/02 04:02:31;;;;;;;70.97;6.20;;;13.70;99.90;;;;;;5093348;28;20089;-76
2021/12/02 04:04:59;;;;;;;81.33;7.03;;;13.70;99.90;;;;;;5093397;28;20036;-76
2021/12/02 04:07:26;;;;;;;74.57;6.32;;;13.70;99.90;;;;;;5092989;28;20384;-76
2021/12/02 04:09:53;;;;;;;65.70;5.82;;;13.70;99.90;;;;;;5093562;28;20112;-76
2021/12/02 04:12:31;;;;;;;72.30;6.43;;;13.60;99.90;;;;;;5093952;28;20077;-76
2021/12/02 04:17:40;;;;;;;71.90;6.90;;;13.60;99.90;;;;;;5093776;28;20092;-76
2021/12/02 04:20:17;;;;;;;53.92;6.50;;;13.70;99.90;;;;;;5077506;28;20097;-77
2021/12/02 04:22:44;;;;;;;59.22;6.38;;;13.80;99.90;;;;;;5093999;28;20024;-76
2021/12/02 04:25:13;;;;;;;79.70;7.22;;;13.90;99.90;;;;;;5094828;28;20046;-76
2021/12/02 04:27:41;;;;;;;58.70;5.90;;;13.90;99.90;;;;;;5092621;28;20400;-77
2021/12/02 04:30:10;;;;;;;55.78;5.53;;;13.90;99.90;;;;;;5094879;28;20189;-76
2021/12/02 04:32:39;;;;;;;43.22;4.93;;;13.90;99.90;;;;;;5094301;28;20016;-76
2021/12/02 04:35:08;;;;;;;62.20;5.10;;;13.90;99.90;;;;;;5094230;28;20099;-76
2021/12/02 04:37:35;;;;;;;62.50;5.97;;;13.90;99.90;;;;;;5093943;28;20024;-76
2021/12/02 04:40:03;;;;;;;52.63;5.75;;;13.80;99.90;;;;;;5094443;28;20028;-76
2021/12/02 04:42:30;;;;;;;71.57;6.97;;;13.80;99.90;;;;;;5094444;28;20028;-77
2021/12/02 04:44:58;;;;;;;66.10;5.97;;;13.90;99.90;;;;;;5094353;28;20124;-76
2021/12/02 04:47:36;;;;;;;65.22;5.65;;;13.90;99.90;;;;;;5092651;28;20150;-76
2021/12/02 04:50:10;;;;;;;72.07;5.50;;;13.90;99.90;;;;;;5059187;28;20063;-76
2021/12/02 04:52:39;;;;;;;76.35;6.13;;;13.90;99.90;;;;;;5093048;28;20115;-76
2021/12/02 04:55:06;;;;;;;68.95;6.03;;;13.80;99.90;;;;;;5094132;28;20024;-76
2021/12/02 04:57:34;;;;;;;65.65;5.65;;;13.80;99.90;;;;;;5092495;28;20032;-75
2021/12/02 05:00:00;;;;;;;71.53;6.13;;;13.90;99.90;;;;;;5093812;28;20024;-76
2021/12/02 05:02:26;;;;;;;64.07;5.90;;;14.00;99.90;;;;;;5093788;28;20109;-75
2021/12/02 05:04:52;;;;;;;75.78;5.70;;;14.00;99.90;;;;;;5092953;28;20351;-75
2021/12/02 05:07:24;;;;;;;70.00;6.82;;;14.00;99.90;;;;;;5093655;28;20099;-76
2021/12/02 05:09:50;;;;;;;77.47;5.63;;;14.00;99.90;;;;;;5093469;28;20046;-76
2021/12/02 05:12:17;;;;;;;61.15;6.10;;;14.00;99.90;;;;;;5075365;28;20028;-76
2021/12/02 05:14:44;;;;;;;79.03;5.77;;;13.90;99.90;;;;;;5092285;28;20414;-76
2021/12/02 05:17:10;;;;;;;62.58;5.57;;;13.90;99.90;;;;;;5094096;28;20068;-76
2021/12/02 05:19:36;;;;;;;63.23;5.70;;;13.90;99.90;;;;;;5094052;28;20475;-76
2021/12/02 05:22:03;;;;;;;77.53;5.67;;;14.00;99.90;;;;;;5092217;28;20032;-76
2021/12/02 05:24:36;;;;;;;61.45;5.22;;;14.00;99.90;;;;;;5075539;28;20039;-76
2021/12/02 05:27:02;;;;;;;68.85;5.40;;;14.00;99.90;;;;;;5094009;28;20032;-76
2021/12/02 05:29:29;;;;;;;49.63;4.95;;;14.00;99.90;;;;;;5092386;28;20048;-78
2021/12/02 05:31:56;;;;;;;65.83;4.67;;;14.00;99.90;;;;;;5093306;28;20077;-76
2021/12/02 05:34:22;;;;;;;77.63;5.53;;;14.00;99.90;;;;;;5093082;28;20055;-76
2021/12/02 05:36:48;;;;;;;76.57;6.17;;;14.20;99.90;;;;;;5093203;28;20050;-76
2021/12/02 05:39:17;;;;;;;63.87;5.53;;;14.20;99.90;;;;;;5093537;28;20360;-76
2021/12/02 05:41:43;;;;;;;61.25;5.40;;;14.20;99.90;;;;;;5092913;28;20254;-75
2021/12/02 05:44:10;;;;;;;;;;;14.10;99.90;;;;;;5093461;28;20169;-76
2021/12/02 05:46:37;;;;;;;55.42;4.78;;;14.10;99.90;;;;;;5093108;28;19964;-76
2021/12/02 05:49:04;;;;;;;63.85;5.38;;;14.00;99.90;;;;;;5093162;28;20133;-75
2021/12/02 05:51:31;;;;;;;60.45;4.57;;;14.00;99.90;;;;;;5093314;28;20034;-79
2021/12/02 05:53:57;;;;;;;74.57;6.95;;;14.00;99.90;;;;;;5093540;28;20012;-77
2021/12/02 05:56:23;;;;;;;53.57;5.33;;;14.00;99.90;;;;;;5093919;28;20035;-76
2021/12/02 05:58:49;;;;;;;58.37;5.03;;;14.00;99.90;;;;;;5093112;28;20460;-78
2021/12/02 06:01:15;;;;;;;73.00;5.13;;;14.00;99.90;;;;;;5092932;28;20302;-78
2021/12/02 06:03:41;;;;;;;67.93;5.83;;;14.00;99.90;;;;;;5093141;28;20025;-77
2021/12/02 06:06:07;;;;;;;57.40;5.33;;;14.00;99.90;;;;;;5092697;28;20079;-77
2021/12/02 06:08:34;;;;;;;77.90;6.05;;;14.00;99.90;;;;;;5093202;28;20289;-77
2021/12/02 06:11:00;;;;;;;60.45;6.15;;;14.10;99.90;;;;;;5093361;28;20024;-77
2021/12/02 06:13:28;;;;;;;69.73;5.23;;;14.20;99.90;;;;;;5092736;28;20100;-77
2021/12/02 06:15:55;;;;;;;59.35;6.13;;;14.20;99.90;;;;;;5092978;28;20046;-77
2021/12/02 06:18:26;;;;;;;50.05;6.25;;;14.10;99.90;;;;;;5091442;28;20054;-77
2021/12/02 06:20:54;;;;;;;61.03;5.65;;;14.10;99.90;;;;;;5093431;28;20062;-77
2021/12/02 06:23:22;;;;;;;74.35;5.72;;;14.20;99.90;;;;;;5091408;28;20028;-78
2021/12/02 06:25:50;;;;;;;71.18;6.40;;;14.10;99.90;;;;;;5092594;28;20063;-79
2021/12/02 06:28:20;;;;;;;63.55;5.53;;;14.20;99.90;;;;;;5092642;28;20021;-79
2021/12/02 06:30:49;;;;;;;61.63;5.43;;;14.20;99.90;;;;;;5092439;28;20027;-80
2021/12/02 06:33:15;;;;;;;50.73;5.10;;;14.20;99.90;;;;;;5094428;28;20024;-80
2021/12/02 06:35:44;;;;;;;45.67;4.50;;;14.20;99.90;;;;;;5094838;28;20212;-80
2021/12/02 06:38:12;;;;;;;39.60;4.22;;;14.10;99.90;;;;;;5096438;28;20016;-80
2021/12/02 06:40:42;;;;;;;47.13;5.15;;;14.20;99.90;;;;;;5096703;28;20024;-80
2021/12/02 06:43:09;;;;;;;47.20;4.05;;;14.20;99.90;;;;;;5096475;28;20016;-80
2021/12/02 06:45:35;;;;;;;47.42;3.67;;;14.40;99.90;;;;;;5095814;28;20044;-80
2021/12/02 06:48:02;;;;;;;;;;;14.40;99.90;;;;;;5095735;28;20054;-80
2021/12/02 06:50:31;;;;;;;42.42;3.90;;;14.40;99.90;;;;;;5095931;28;19947;-82
2021/12/02 06:52:58;;;;;;;52.72;4.15;;;14.40;99.90;;;;;;5095188;28;20461;-80
2021/12/02 06:55:25;;;;;;;44.80;4.30;;;14.50;99.90;;;;;;5095002;28;20534;-80
2021/12/02 06:57:51;;;;;;;48.58;4.63;;;14.60;99.90;;;;;;5095433;28;20019;-82
2021/12/02 07:00:20;;;;;;;44.92;4.55;;;14.60;99.90;;;;;;5094688;28;20032;-82
2021/12/02 07:02:48;;;;;;;36.25;3.78;;;14.70;99.90;;;;;;5094577;28;20540;-82
2021/12/02 07:05:16;;;;;;;45.58;4.43;;;15.00;99.90;;;;;;5095362;28;20491;-81
2021/12/02 07:07:43;;;;;;;37.22;3.95;;;15.60;99.90;;;;;;5094276;28;20028;-82
2021/12/02 07:10:22;;;;;;;32.78;3.92;;;16.30;99.90;;;;;;5095056;28;20454;-82
2021/12/02 07:12:58;;;;;;;33.70;3.70;;;17.00;99.90;;;;;;5096164;28;20043;-82
2021/12/02 07:15:31;;;;;;;37.20;3.07;;;17.80;99.90;;;;;;5095607;28;20020;-82
2021/12/02 07:18:10;;;;;;;38.97;4.03;;;18.60;99.90;;;;;;5096146;28;20480;-85
2021/12/02 07:20:36;;;;;;;26.95;3.35;;;19.10;99.90;;;;;;5095927;28;20476;-80
2021/12/02 07:23:03;;;;;;;36.65;4.07;;;20.00;99.90;;;;;;5095510;28;20073;-91
2021/12/02 07:25:30;;;;;;;43.45;4.00;;;20.30;99.90;;;;;;5095638;28;20042;-80
2021/12/02 07:27:56;;;;;;;;;;;20.50;99.90;;;;;;5096566;28;20058;-79
2021/12/02 07:30:23;;;;;;;32.92;3.00;;;20.50;99.90;;;;;;5095765;28;19904;-79
2021/12/02 07:32:56;;;;;;;39.63;3.88;;;20.40;99.90;;;;;;5095972;28;20024;-81
2021/12/02 07:35:24;;;;;;;35.53;3.90;;;20.10;99.90;;;;;;5094093;28;20044;-75
2021/12/02 07:37:57;;;;;;;38.35;3.95;;;20.00;99.90;;;;;;5095446;28;20026;-75
2021/12/02 07:40:24;;;;;;;41.33;4.82;;;19.70;99.90;;;;;;5095463;28;20074;-74
2021/12/02 07:42:53;;;;;;;38.60;4.13;;;19.50;99.90;;;;;;5092576;28;20384;-74
2021/12/02 07:45:21;;;;;;;35.70;4.05;;;19.40;99.90;;;;;;5095517;28;20148;-75
2021/12/02 07:47:48;;;;;;;43.22;4.50;;;19.30;99.90;;;;;;5095153;28;20156;-74
2021/12/02 07:50:15;;;;;;;47.30;5.80;;;19.10;99.90;;;;;;5093692;28;20031;-73
2021/12/02 07:52:55;;;;;;;34.60;4.88;;;19.10;99.90;;;;;;5094819;28;20024;-74
2021/12/02 07:55:24;;;;;;;36.95;4.97;;;18.80;99.90;;;;;;5094844;28;20024;-74
2021/12/02 07:57:51;;;;;;;44.65;4.50;;;18.60;99.90;;;;;;5094598;28;20032;-74
2021/12/02 08:00:26;;;;;;;28.40;3.60;;;18.50;99.90;;;;;;5095243;28;20024;-74
2021/12/02 08:02:54;;;;;;;34.05;3.92;;;18.50;99.90;;;;;;5094429;28;20035;-73
2021/12/02 08:05:22;;;;;;;43.30;4.00;;;18.30;99.90;;;;;;5094576;28;20028;-74
2021/12/02 08:07:48;;;;;;;45.28;4.88;;;18.30;99.90;;;;;;5093530;28;20051;-74
2021/12/02 08:10:15;;;;;;;46.05;4.22;;;18.20;99.90;;;;;;5093434;28;20063;-72
2021/12/02 08:12:47;;;;;;;46.30;4.57;;;18.20;99.90;;;;;;5092854;28;20027;-73
2021/12/02 08:15:16;;;;;;;31.15;3.00;;;18.40;99.90;;;;;;5094982;28;20553;-71
2021/12/02 08:17:43;;;;;;;46.83;4.63;;;18.40;99.90;;;;;;5094328;28;20016;-73
2021/12/02 08:20:10;;;;;;;31.00;3.72;;;18.40;99.90;;;;;;5094256;28;20028;-73
2021/12/02 08:22:35;;;;;;;;;;;18.30;99.90;;;;;;5093722;28;20063;-74
2021/12/02 08:25:02;;;;;;;44.78;3.65;;;18.20;99.90;;;;;;5092817;28;19955;-72
2021/12/02 08:27:28;;;;;;;41.65;4.05;;;18.10;99.90;;;;;;5094662;28;20024;-73
2021/12/02 08:29:54;;;;;;;35.42;2.90;;;18.10;99.90;;;;;;5094287;28;20069;-73
2021/12/02 08:32:20;;;;;;;31.30;3.78;;;18.10;99.90;;;;;;5094054;28;20334;-73
2021/12/02 08:34:46;;;;;;;41.03;4.43;;;18.20;99.90;;;;;;5092639;28;20112;-73
2021/12/02 08:37:13;;;;;;;44.28;4.10;;;18.00;99.90;;;;;;5094497;28;20425;-74
2021/12/02 08:39:41;;;;;;;31.00;3.55;;;17.70;99.90;;;;;;5092839;28;20496;-73
2021/12/02 08:42:09;;;;;;;42.78;3.78;;;17.50;99.90;;;;;;5092715;28;20028;-73
2021/12/02 08:44:38;;;;;;;39.20;3.75;;;17.50;99.90;;;;;;5094278;28;20123;-74
2021/12/02 08:47:06;;;;;;;47.80;4.55;;;17.60;99.90;;;;;;5093922;28;20387;-72
2021/12/02 08:49:33;;;;;;;37.50;3.20;;;17.50;99.90;;;;;;5092881;28;20035;-74
2021/12/02 08:51:59;;;;;;;31.98;3.88;;;17.50;99.90;;;;;;5093243;28;20027;-73
2021/12/02 08:54:26;;;;;;;31.00;3.80;;;17.40;99.90;;;;;;5091211;28;20426;-73
2021/12/02 08:56:54;;;;;;;35.17;2.90;;;17.50;99.90;;;;;;5093079;28;20026;-74
2021/12/02 08:59:20;;;;;;;36.67;2.88;;;17.50;99.90;;;;;;5092856;28;20031;-73
2021/12/02 09:01:47;;;;;;;25.95;3.33;;;17.40;99.90;;;;;;5093252;28;20027;-75
2021/12/02 09:04:15;;;;;;;35.45;3.00;;;17.50;99.90;;;;;;5093271;28;20035;-74
2021/12/02 09:06:41;;;;;;;27.17;2.75;;;17.50;99.90;;;;;;5093350;28;20030;-73
2021/12/02 09:09:08;;;;;;;41.47;3.90;;;17.50;99.90;;;;;;5091591;28;20043;-74
2021/12/02 09:11:34;;;;;;;50.65;4.28;;;17.50;99.90;;;;;;5091618;28;20031;-74
2021/12/02 09:14:04;;;;;;;38.85;4.10;;;17.70;99.90;;;;;;5092954;28;20024;-74
2021/12/02 09:16:32;;;;;;;52.10;4.22;;;17.80;99.90;;;;;;5093426;28;20020;-74
2021/12/02 09:18:58;;;;;;;39.40;4.35;;;17.70;99.90;;;;;;5093439;28;20093;-73
2021/12/02 09:21:26;;;;;;;33.75;3.85;;;17.70;99.90;;;;;;5094195;28;20491;-73
2021/12/02 09:23:53;;;;;;;33.58;3.63;;;17.80;99.90;;;;;;5091899;28;20118;-73
2021/12/02 09:26:22;;;;;;;35.15;3.65;;;17.80;99.90;;;;;;5093414;28;20145;-73
2021/12/02 09:28:53;;;;;;;45.33;4.25;;;17.90;99.90;;;;;;5093300;28;20449;-72
2021/12/02 09:31:23;;;;;;;39.85;3.70;;;17.80;99.90;;;;;;5093335;28;20024;-74
2021/12/02 09:33:50;;;;;;;32.30;3.88;;;17.60;99.90;;;;;;5093493;28;20043;-73
2021/12/02 09:36:17;;;;;;;40.72;4.53;;;17.60;99.90;;;;;;5093506;28;20024;-75
2021/12/02 09:38:44;;;;;;;38.72;4.10;;;17.60;99.90;;;;;;5093340;28;20426;-74
2021/12/02 09:41:12;;;;;;;36.65;3.75;;;17.50;99.90;;;;;;5093081;28;20084;-75
2021/12/02 09:43:40;;;;;;;54.90;4.43;;;17.50;99.90;;;;;;5091543;28;20024;-73
2021/12/02 09:46:07;;;;;;;33.50;3.60;;;17.40;99.90;;;;;;5092534;28;20077;-73
2021/12/02 09:48:35;;;;;;;30.60;2.97;;;17.30;99.90;;;;;;5091539;28;20027;-72
2021/12/02 09:51:17;;;;;;;48.83;4.50;;;17.40;99.90;;;;;;5092671;28;20027;-75
2021/12/02 09:53:59;;;;;;;34.55;3.72;;;17.20;99.90;;;;;;5091573;28;20028;-75
2021/12/02 09:56:30;;;;;;;39.63;3.35;;;17.30;99.90;;;;;;5092371;28;20039;-74
2021/12/02 09:59:05;;;;;;;33.40;4.25;;;17.40;99.90;;;;;;5093147;28;20460;-75
2021/12/02 10:01:46;;;;;;;35.00;3.30;;;17.50;99.90;;;;;;5092686;28;20032;-74
2021/12/02 10:04:13;;;;;;;43.00;3.78;;;17.40;99.90;;;;;;5092674;28;20040;-75
2021/12/02 10:06:41;;;;;;;48.70;4.18;;;17.20;99.90;;;;;;5094277;28;20032;-76
2021/12/02 10:09:21;;;;;;;38.13;4.38;;;17.00;99.90;;;;;;5096990;28;20020;-73
2021/12/02 10:12:01;;;;;;;42.90;3.72;;;16.90;99.90;;;;;;5096817;28;20020;-74
2021/12/02 10:14:36;;;;;;;41.33;4.10;;;17.00;99.90;;;;;;5096874;28;20048;-75
2021/12/02 10:17:21;;;;;;;41.10;4.05;;;16.90;99.90;;;;;;5078377;28;20123;-74
2021/12/02 10:23:22;;;;;;;52.92;4.65;;;16.90;99.90;;;;;;5096277;28;20028;-74
2021/12/02 10:25:56;;;;;;;50.35;4.15;;;17.10;99.90;;;;;;5096221;28;20480;-74
2021/12/02 10:28:23;;;;;;;49.58;4.00;;;17.10;99.90;;;;;;5094836;28;20050;-73
2021/12/02 10:31:04;;;;;;;48.53;3.80;;;16.90;99.90;;;;;;5094440;28;20024;-74
2021/12/02 10:33:33;;;;;;;37.58;3.50;;;16.90;99.90;;;;;;5096064;28;20370;-73
2021/12/02 10:36:01;;;;;;;49.08;3.97;;;16.70;99.90;;;;;;5096051;28;20032;-72
2021/12/02 10:38:43;;;;;;;50.83;4.13;;;16.90;99.90;;;;;;5095635;28;20031;-75
2021/12/02 10:41:20;;;;;;;33.40;3.42;;;17.10;99.90;;;;;;5094308;28;20024;-74
2021/12/02 10:44:26;;;;;;;26.92;3.03;;;17.20;99.90;;;;;;5095511;28;20407;-73
2021/12/02 10:47:15;;;;;;;32.53;3.90;;;17.20;99.90;;;;;;5053141;28;20124;-75
2021/12/02 10:49:47;;;;;;;31.75;3.55;;;17.10;99.90;;;;;;5036874;28;20095;-75
2021/12/02 10:52:30;;;;;;;38.42;3.45;;;17.00;99.90;;;;;;5053493;28;20073;-73
2021/12/02 10:55:21;;;;;;;28.58;2.70;;;17.00;99.90;;;;;;5036456;28;20025;-74
2021/12/02 10:57:54;;;;;;;35.15;2.97;;;17.10;99.90;;;;;;5053415;28;20501;-73
2021/12/02 11:00:23;;;;;;;26.17;2.63;;;17.20;99.90;;;;;;5035724;28;20075;-72
2021/12/02 11:02:53;;;;;;;18.67;2.47;;;17.10;99.90;;;;;;5035114;28;20036;-72
2021/12/02 11:05:31;;;;;;;27.80;3.13;;;17.00;99.90;;;;;;5050243;28;20037;-72
2021/12/02 11:08:06;;;;;;;32.05;3.13;;;17.10;99.90;;;;;;5051327;28;20052;-73
2021/12/02 11:10:48;;;;;;;21.65;2.83;;;17.30;99.90;;;;;;5052145;28;20497;-72
2021/12/02 11:13:25;;;;;;;30.17;3.17;;;17.40;99.90;;;;;;5052434;28;20029;-71
2021/12/02 11:15:52;;;;;;;17.77;2.58;;;17.50;99.90;;;;;;5052483;28;20164;-72
2021/12/02 11:18:21;;;;;;;27.15;3.45;;;17.50;99.90;;;;;;5085493;28;20046;-72
2021/12/02 11:20:51;;;;;;;32.10;2.88;;;17.40;99.90;;;;;;5094756;28;20016;-72
2021/12/02 11:23:30;;;;;;;17.90;3.10;;;17.50;99.90;;;;;;5094728;28;20495;-72
2021/12/02 11:26:05;;;;;;;24.70;2.78;;;17.50;99.90;;;;;;5094594;28;20101;-74
2021/12/02 11:28:35;;;;;;;16.77;2.30;;;17.30;99.90;;;;;;5094340;28;20030;-71
2021/12/02 11:31:18;;;;;;;22.15;2.70;;;17.10;99.90;;;;;;5093133;28;20462;-71
2021/12/02 11:33:48;;;;;;;29.05;3.10;;;17.00;99.90;;;;;;5094745;28;20110;-72
2021/12/02 11:36:25;;;;;;;17.85;2.63;;;17.10;99.90;;;;;;5093488;28;20024;-72
2021/12/02 11:38:55;;;;;;;27.67;2.90;;;17.40;99.90;;;;;;5093199;28;20028;-72
2021/12/02 11:41:22;;;;;;;15.25;2.55;;;17.50;99.90;;;;;;5094467;28;20022;-70
2021/12/02 11:43:49;;;;;;;28.48;2.72;;;17.50;99.90;;;;;;5093115;28;20114;-70
2021/12/02 11:46:18;;;;;;;20.98;2.80;;;17.50;99.90;;;;;;5094282;28;20127;-71
2021/12/02 11:48:44;;;;;;;25.33;2.97;;;17.60;99.90;;;;;;5094283;28;20028;-71
2021/12/02 11:51:17;;;;;;;23.48;3.60;;;17.80;99.90;;;;;;5094258;28;20024;-72
2021/12/02 11:53:45;;;;;;;18.23;2.70;;;18.00;99.90;;;;;;5076767;28;20042;-72
2021/12/02 11:56:15;;;;;;;28.75;3.60;;;17.80;99.90;;;;;;5094024;28;20119;-71
2021/12/02 11:58:42;;;;;;;20.70;2.75;;;17.60;99.90;;;;;;5093894;28;20111;-72
2021/12/02 12:01:21;;;;;;;15.25;2.65;;;17.40;99.90;;;;;;5093642;28;20020;-72
2021/12/02 12:04:16;;;;;;;26.63;2.80;;;17.30;99.90;;;;;;5092950;28;20459;-71
2021/12/02 12:06:45;;;;;;;26.67;3.28;;;17.10;99.90;;;;;;5093805;28;20036;-72
2021/12/02 12:09:18;;;;;;;27.17;3.03;;;17.10;99.90;;;;;;5093088;28;20107;-71
2021/12/02 12:11:49;;;;;;;23.75;3.50;;;17.20;99.90;;;;;;5093155;28;20024;-70
2021/12/02 12:14:19;;;;;;;15.68;2.22;;;17.10;99.90;;;;;;5093349;28;20034;-70
2021/12/02 12:16:46;;;;;;;21.85;2.75;;;17.10;99.90;;;;;;5093319;28;20534;-70
2021/12/02 12:19:20;;;;;;;17.58;2.50;;;17.30;99.90;;;;;;5093821;28;20105;-70
2021/12/02 12:21:57;;;;;;;20.48;2.30;;;17.40;99.90;;;;;;5093890;28;20043;-70
2021/12/02 12:24:42;;;;;;;;;;;17.60;99.90;;;;;;5094309;28;20138;-74
2021/12/02 12:27:15;;;;;;;18.27;2.78;;;17.60;99.90;;;;;;5093755;28;20013;-71
2021/12/02 12:29:49;;;;;;;21.98;2.50;;;17.60;99.90;;;;;;5092904;28;20093;-72
2021/12/02 12:32:33;;;;;;;23.63;2.75;;;17.60;99.90;;;;;;5094129;28;20122;-72
2021/12/02 12:35:05;;;;;;;19.23;2.58;;;17.50;99.90;;;;;;5094300;28;20401;-72
2021/12/02 12:40:09;;;;;;;;;;;17.60;99.90;;;;;;5094797;28;20032;-72
2021/12/02 12:42:49;;;;;;;19.50;2.83;;;17.50;99.90;;;;;;5094474;28;19904;-71
2021/12/02 12:45:43;;;;;;;13.23;2.25;;;17.40;99.90;;;;;;5094127;28;20039;-71
2021/12/02 12:48:27;;;;;;;23.27;2.60;;;17.30;99.90;;;;;;5093743;28;20024;-72
2021/12/02 12:51:20;;;;;;;18.92;3.00;;;17.30;99.90;;;;;;5093089;28;20184;-73
2021/12/02 12:53:53;;;;;;;31.42;2.80;;;17.30;99.90;;;;;;5093565;28;20050;-72
2021/12/02 12:56:30;;;;;;;19.27;2.60;;;17.30;99.90;;;;;;5091855;28;20130;-72
2021/12/02 12:59:01;;;;;;;24.83;3.00;;;17.40;99.90;;;;;;5091459;28;20048;-71
2021/12/02 13:01:28;;;;;;;15.77;2.53;;;17.30;99.90;;;;;;5093086;28;20098;-70
2021/12/02 13:04:14;;;;;;;14.80;2.25;;;17.30;99.90;;;;;;5093025;28;20024;-72
2021/12/02 13:07:07;;;;;;;18.98;2.78;;;17.40;99.90;;;;;;5093389;28;20063;-72
2021/12/02 13:09:47;;;;;;;20.40;2.35;;;17.70;99.90;;;;;;5094238;28;20465;-73
2021/12/02 13:12:18;;;;;;;16.85;2.30;;;17.80;99.90;;;;;;5092417;28;20028;-71
2021/12/02 13:14:45;;;;;;;18.38;2.63;;;17.60;99.90;;;;;;5093533;28;20069;-70
2021/12/02 13:17:40;;;;;;;24.63;3.03;;;17.60;99.90;;;;;;5093551;28;20103;-72
2021/12/02 13:20:21;;;;;;;25.15;2.65;;;17.40;99.90;;;;;;5094626;28;20165;-72